createdAt,value
2019-02-17T00:00:02.629Z,0.00
2019-02-17T00:01:02.619Z,0.00
2019-02-17T00:02:02.625Z,0.00
2019-02-17T00:03:02.595Z,0.00
2019-02-17T00:04:02.610Z,0.00
2019-02-17T00:05:02.570Z,0.00
2019-02-17T00:06:02.563Z,0.00
2019-02-17T00:07:02.567Z,0.00
2019-02-17T00:08:02.536Z,0.00
2019-02-17T00:09:02.555Z,0.00
2019-02-17T00:10:02.593Z,0.00
2019-02-17T00:11:02.499Z,0.00
2019-02-17T00:12:02.493Z,0.00
2019-02-17T00:13:02.502Z,0.00
2019-02-17T00:14:02.467Z,0.00
2019-02-17T00:15:02.473Z,0.00
2019-02-17T00:16:02.453Z,0.00
2019-02-17T00:17:02.438Z,0.00
2019-02-17T00:18:02.434Z,0.00
2019-02-17T00:19:02.441Z,0.00
2019-02-17T00:20:02.424Z,0.00
2019-02-17T00:21:02.560Z,0.00
2019-02-17T00:22:02.381Z,0.00
2019-02-17T00:23:02.381Z,0.00
2019-02-17T00:24:02.385Z,0.00
2019-02-17T00:25:02.389Z,0.00
2019-02-17T00:26:02.336Z,0.00
2019-02-17T00:27:02.393Z,0.00
2019-02-17T00:28:02.315Z,0.00
2019-02-17T00:29:02.302Z,0.00
2019-02-17T00:30:02.317Z,0.00
2019-02-17T00:31:03.330Z,0.00
2019-02-17T00:32:02.279Z,0.00
2019-02-17T00:33:02.265Z,0.00
2019-02-17T00:34:02.277Z,0.00
2019-02-17T00:35:02.248Z,0.00
2019-02-17T00:36:02.246Z,0.00
2019-02-17T00:37:02.212Z,0.00
2019-02-17T00:38:02.207Z,0.00
2019-02-17T00:39:02.213Z,0.00
2019-02-17T00:40:02.183Z,0.00
2019-02-17T00:41:02.206Z,0.00
2019-02-17T00:42:02.985Z,0.00
2019-02-17T00:43:02.151Z,0.00
2019-02-17T00:44:02.147Z,0.00
2019-02-17T00:45:02.122Z,0.00
2019-02-17T00:46:02.152Z,0.00
2019-02-17T00:47:02.095Z,0.00
2019-02-17T00:48:02.097Z,0.00
2019-02-17T00:49:02.083Z,0.00
2019-02-17T00:50:02.075Z,0.00
2019-02-17T00:51:02.163Z,0.00
2019-02-17T00:52:02.071Z,0.00
2019-02-17T00:53:02.032Z,0.00
2019-02-17T00:54:02.023Z,0.00
2019-02-17T00:55:02.015Z,0.00
2019-02-17T00:56:02.023Z,0.00
2019-02-17T00:57:01.992Z,0.00
2019-02-17T00:58:02.000Z,0.00
2019-02-17T00:59:09.603Z,0.00
2019-02-17T01:00:02.959Z,0.00
2019-02-17T01:01:01.971Z,0.00
2019-02-17T01:02:01.938Z,0.00
2019-02-17T01:03:02.029Z,0.00
2019-02-17T01:04:01.924Z,0.00
2019-02-17T01:05:01.916Z,0.00
2019-02-17T01:06:01.889Z,0.00
2019-02-17T01:07:01.899Z,0.00
2019-02-17T01:08:01.879Z,0.00
2019-02-17T01:09:01.861Z,0.00
2019-02-17T01:10:01.853Z,0.00
2019-02-17T01:11:01.832Z,0.00
2019-02-17T01:12:01.847Z,0.00
2019-02-17T01:13:01.825Z,0.00
2019-02-17T01:14:01.803Z,0.00
2019-02-17T01:15:01.802Z,0.00
2019-02-17T01:16:01.776Z,0.00
2019-02-17T01:17:01.805Z,0.00
2019-02-17T01:18:01.764Z,0.00
2019-02-17T01:19:01.745Z,0.00
2019-02-17T01:20:01.766Z,0.00
2019-02-17T01:21:01.739Z,0.00
2019-02-17T01:22:01.713Z,0.00
2019-02-17T01:23:01.726Z,0.00
2019-02-17T01:24:01.700Z,0.00
2019-02-17T01:25:01.682Z,0.00
2019-02-17T01:26:01.668Z,0.00
2019-02-17T01:27:01.654Z,0.00
2019-02-17T01:28:01.665Z,0.00
2019-02-17T01:29:01.631Z,0.00
2019-02-17T01:30:01.627Z,0.00
2019-02-17T01:31:01.622Z,0.00
2019-02-17T01:32:01.608Z,0.00
2019-02-17T01:33:01.628Z,0.00
2019-02-17T01:34:01.687Z,0.00
2019-02-17T01:35:01.593Z,0.00
2019-02-17T01:36:01.612Z,0.00
2019-02-17T01:37:01.543Z,0.00
2019-02-17T01:38:01.552Z,0.00
2019-02-17T01:39:01.516Z,0.00
2019-02-17T01:40:01.511Z,0.00
2019-02-17T01:41:01.503Z,0.00
2019-02-17T01:42:01.487Z,0.00
2019-02-17T01:43:01.490Z,0.00
2019-02-17T01:44:01.463Z,0.00
2019-02-17T01:45:01.451Z,0.00
2019-02-17T01:46:01.441Z,0.00
2019-02-17T01:47:01.434Z,0.00
2019-02-17T01:48:01.445Z,0.00
2019-02-17T01:49:01.416Z,0.00
2019-02-17T01:50:01.423Z,0.00
2019-02-17T01:51:01.389Z,0.00
2019-02-17T01:52:01.385Z,0.00
2019-02-17T01:53:01.379Z,0.00
2019-02-17T01:54:01.411Z,0.00
2019-02-17T01:55:01.357Z,0.00
2019-02-17T01:56:01.332Z,0.00
2019-02-17T01:57:01.318Z,0.00
2019-02-17T01:58:01.309Z,0.00
2019-02-17T01:59:01.312Z,0.00
2019-02-17T02:00:01.292Z,0.00
2019-02-17T02:01:01.272Z,0.00
2019-02-17T02:02:01.267Z,0.00
2019-02-17T02:03:01.268Z,0.00
2019-02-17T02:04:01.256Z,0.00
2019-02-17T02:05:01.227Z,0.00
2019-02-17T02:06:01.220Z,0.00
2019-02-17T02:07:01.203Z,0.00
2019-02-17T02:08:01.205Z,0.00
2019-02-17T02:09:01.206Z,0.00
2019-02-17T02:10:01.190Z,0.00
2019-02-17T02:11:01.160Z,0.00
2019-02-17T02:12:01.157Z,0.00
2019-02-17T02:13:01.138Z,0.00
2019-02-17T02:14:01.145Z,0.00
2019-02-17T02:15:01.141Z,0.00
2019-02-17T02:16:01.113Z,0.00
2019-02-17T02:17:01.088Z,0.00
2019-02-17T02:18:01.083Z,0.00
2019-02-17T02:19:01.075Z,0.00
2019-02-17T02:20:01.081Z,0.00
2019-02-17T02:21:01.049Z,0.00
2019-02-17T02:22:01.043Z,0.00
2019-02-17T02:23:01.020Z,0.00
2019-02-17T02:24:01.012Z,0.00
2019-02-17T02:25:01.031Z,0.00
2019-02-17T02:26:00.996Z,0.00
2019-02-17T02:27:00.981Z,0.00
2019-02-17T02:28:00.970Z,0.00
2019-02-17T02:29:00.958Z,0.00
2019-02-17T02:30:00.977Z,0.00
2019-02-17T02:31:00.950Z,0.00
2019-02-17T02:32:00.935Z,0.00
2019-02-17T02:33:00.934Z,0.00
2019-02-17T02:34:00.901Z,0.00
2019-02-17T02:35:00.914Z,0.00
2019-02-17T02:36:00.880Z,0.00
2019-02-17T02:37:00.885Z,0.00
2019-02-17T02:38:00.858Z,0.00
2019-02-17T02:39:00.853Z,0.00
2019-02-17T02:40:00.859Z,0.00
2019-02-17T02:41:00.822Z,0.00
2019-02-17T02:42:00.823Z,0.00
2019-02-17T02:43:00.800Z,0.00
2019-02-17T02:44:00.798Z,0.00
2019-02-17T02:45:00.802Z,0.00
2019-02-17T02:46:00.772Z,0.00
2019-02-17T02:47:00.756Z,0.00
2019-02-17T02:48:00.746Z,0.00
2019-02-17T02:49:01.457Z,0.00
2019-02-17T02:50:00.890Z,0.00
2019-02-17T02:51:00.709Z,0.00
2019-02-17T02:52:00.699Z,0.00
2019-02-17T02:53:00.687Z,0.00
2019-02-17T02:54:00.683Z,0.00
2019-02-17T02:55:00.727Z,0.00
2019-02-17T02:56:00.659Z,0.00
2019-02-17T02:57:00.646Z,0.00
2019-02-17T02:58:00.627Z,0.00
2019-02-17T02:59:00.624Z,0.00
2019-02-17T03:00:00.627Z,0.00
2019-02-17T03:01:00.614Z,0.00
2019-02-17T03:02:00.595Z,0.00
2019-02-17T03:03:00.607Z,0.00
2019-02-17T03:04:00.572Z,0.00
2019-02-17T03:05:00.592Z,0.00
2019-02-17T03:06:00.600Z,0.00
2019-02-17T03:07:00.543Z,0.00
2019-02-17T03:08:00.593Z,0.00
2019-02-17T03:09:00.656Z,0.00
2019-02-17T03:10:00.501Z,0.00
2019-02-17T03:11:00.518Z,0.00
2019-02-17T03:12:00.479Z,0.00
2019-02-17T03:13:00.473Z,0.00
2019-02-17T03:14:00.451Z,0.00
2019-02-17T03:15:00.443Z,0.00
2019-02-17T03:16:00.447Z,0.00
2019-02-17T03:17:00.914Z,0.00
2019-02-17T03:18:00.499Z,0.00
2019-02-17T03:19:00.402Z,0.00
2019-02-17T03:20:00.404Z,0.00
2019-02-17T03:21:00.392Z,0.00
2019-02-17T03:22:00.365Z,0.00
2019-02-17T03:23:00.363Z,0.00
2019-02-17T03:24:00.347Z,0.00
2019-02-17T03:25:00.340Z,0.00
2019-02-17T03:26:00.345Z,0.00
2019-02-17T03:27:00.325Z,0.00
2019-02-17T03:28:00.297Z,0.00
2019-02-17T03:29:00.284Z,0.00
2019-02-17T03:30:05.114Z,0.00
2019-02-17T03:31:01.533Z,0.00
2019-02-17T03:32:00.250Z,0.00
2019-02-17T03:33:00.241Z,0.00
2019-02-17T03:34:00.234Z,0.00
2019-02-17T03:35:00.259Z,0.00
2019-02-17T03:36:00.228Z,0.00
2019-02-17T03:37:00.217Z,0.00
2019-02-17T03:38:00.327Z,0.00
2019-02-17T03:39:00.178Z,0.00
2019-02-17T03:40:00.381Z,0.00
2019-02-17T03:41:00.189Z,0.00
2019-02-17T03:42:00.153Z,0.00
2019-02-17T03:43:00.138Z,0.00
2019-02-17T03:44:00.117Z,0.00
2019-02-17T03:45:00.160Z,0.00
2019-02-17T03:46:00.271Z,0.00
2019-02-17T03:47:00.086Z,0.00
2019-02-17T03:48:00.074Z,0.00
2019-02-17T03:49:00.066Z,0.00
2019-02-17T03:50:00.051Z,0.00
2019-02-17T03:51:00.065Z,0.00
2019-02-17T03:52:00.047Z,0.00
2019-02-17T03:53:00.022Z,0.00
2019-02-17T03:54:00.009Z,0.00
2019-02-17T03:54:59.995Z,0.00
2019-02-17T03:55:59.985Z,0.00
2019-02-17T03:56:59.995Z,0.00
2019-02-17T03:58:00.020Z,0.00
2019-02-17T03:58:59.950Z,0.00
2019-02-17T04:00:00.017Z,0.00
2019-02-17T04:00:59.925Z,0.00
2019-02-17T04:01:59.933Z,0.00
2019-02-17T04:02:59.904Z,0.00
2019-02-17T04:03:59.906Z,0.00
2019-02-17T04:04:59.904Z,0.00
2019-02-17T04:05:59.876Z,0.00
2019-02-17T04:07:00.517Z,0.00
2019-02-17T04:07:59.867Z,0.00
2019-02-17T04:08:59.851Z,0.00
2019-02-17T04:09:59.829Z,0.00
2019-02-17T04:10:59.823Z,0.00
2019-02-17T04:11:59.824Z,0.00
2019-02-17T04:12:59.800Z,0.00
2019-02-17T04:13:59.782Z,0.00
2019-02-17T04:14:59.773Z,0.00
2019-02-17T04:15:59.812Z,0.00
2019-02-17T04:16:59.775Z,0.00
2019-02-17T04:17:59.743Z,0.00
2019-02-17T04:18:59.728Z,0.00
2019-02-17T04:19:59.715Z,0.00
2019-02-17T04:20:59.730Z,0.00
2019-02-17T04:21:59.698Z,0.00
2019-02-17T04:22:59.700Z,0.00
2019-02-17T04:23:59.670Z,0.00
2019-02-17T04:24:59.674Z,0.00
2019-02-17T04:25:59.652Z,0.00
2019-02-17T04:26:59.641Z,0.00
2019-02-17T04:27:59.641Z,0.00
2019-02-17T04:28:59.620Z,0.00
2019-02-17T04:29:59.612Z,0.00
2019-02-17T04:30:59.599Z,0.00
2019-02-17T04:31:59.584Z,0.00
2019-02-17T04:32:59.603Z,0.00
2019-02-17T04:33:59.579Z,0.00
2019-02-17T04:34:59.583Z,0.00
2019-02-17T04:35:59.541Z,0.00
2019-02-17T04:36:59.531Z,0.00
2019-02-17T04:37:59.537Z,0.00
2019-02-17T04:38:59.506Z,0.00
2019-02-17T04:39:59.498Z,0.00
2019-02-17T04:40:59.483Z,0.00
2019-02-17T04:41:59.469Z,0.00
2019-02-17T04:42:59.482Z,0.00
2019-02-17T04:43:59.447Z,0.00
2019-02-17T04:44:59.440Z,0.00
2019-02-17T04:45:59.423Z,0.00
2019-02-17T04:46:59.418Z,0.00
2019-02-17T04:47:59.423Z,0.00
2019-02-17T04:48:59.409Z,0.00
2019-02-17T04:49:59.385Z,0.00
2019-02-17T04:50:59.379Z,0.00
2019-02-17T04:51:59.367Z,0.00
2019-02-17T04:52:59.365Z,0.00
2019-02-17T04:53:59.349Z,0.00
2019-02-17T04:54:59.332Z,0.00
2019-02-17T04:55:59.394Z,0.00
2019-02-17T04:56:59.308Z,0.00
2019-02-17T04:57:59.318Z,0.00
2019-02-17T04:58:59.279Z,0.00
2019-02-17T04:59:59.266Z,0.00
2019-02-17T05:00:59.282Z,0.00
2019-02-17T05:01:59.248Z,0.00
2019-02-17T05:02:59.238Z,0.00
2019-02-17T05:03:59.250Z,0.00
2019-02-17T05:04:59.212Z,0.00
2019-02-17T05:05:59.204Z,0.00
2019-02-17T05:06:59.192Z,0.00
2019-02-17T05:07:59.178Z,0.00
2019-02-17T05:08:59.194Z,0.00
2019-02-17T05:09:59.241Z,0.00
2019-02-17T05:10:59.148Z,0.00
2019-02-17T05:11:59.136Z,0.00
2019-02-17T05:12:59.123Z,0.00
2019-02-17T05:13:59.132Z,0.00
2019-02-17T05:14:59.102Z,0.00
2019-02-17T05:15:59.101Z,0.00
2019-02-17T05:16:59.084Z,0.00
2019-02-17T05:17:59.067Z,0.00
2019-02-17T05:18:59.079Z,0.00
2019-02-17T05:19:59.050Z,0.00
2019-02-17T05:20:59.069Z,0.00
2019-02-17T05:21:59.024Z,0.00
2019-02-17T05:22:59.012Z,0.00
2019-02-17T05:23:59.020Z,0.00
2019-02-17T05:24:58.991Z,0.00
2019-02-17T05:25:58.997Z,0.00
2019-02-17T05:26:59.472Z,0.00
2019-02-17T05:27:58.958Z,0.00
2019-02-17T05:28:58.977Z,0.00
2019-02-17T05:29:58.940Z,0.00
2019-02-17T05:30:58.927Z,0.00
2019-02-17T05:31:58.915Z,0.00
2019-02-17T05:32:58.904Z,0.00
2019-02-17T05:33:58.909Z,0.00
2019-02-17T05:34:59.133Z,0.00
2019-02-17T05:35:58.872Z,0.00
2019-02-17T05:36:58.867Z,0.00
2019-02-17T05:37:58.850Z,0.00
2019-02-17T05:38:58.864Z,0.00
2019-02-17T05:39:58.827Z,0.00
2019-02-17T05:40:58.818Z,0.00
2019-02-17T05:41:58.801Z,0.00
2019-02-17T05:42:58.790Z,0.00
2019-02-17T05:43:58.849Z,0.00
2019-02-17T05:44:58.789Z,0.00
2019-02-17T05:45:58.760Z,4.00
2019-02-17T05:46:58.765Z,4.00
2019-02-17T05:47:58.734Z,0.00
2019-02-17T05:48:58.726Z,0.00
2019-02-17T05:49:58.745Z,4.00
2019-02-17T05:50:58.801Z,4.00
2019-02-17T05:51:58.693Z,4.00
2019-02-17T05:52:58.681Z,4.00
2019-02-17T05:53:58.672Z,4.00
2019-02-17T05:54:58.683Z,4.00
2019-02-17T05:55:58.648Z,8.00
2019-02-17T05:56:58.638Z,8.00
2019-02-17T05:57:58.634Z,8.00
2019-02-17T05:58:58.635Z,12.00
2019-02-17T05:59:58.626Z,12.00
2019-02-17T06:01:03.807Z,16.00
2019-02-17T06:01:59.656Z,20.00
2019-02-17T06:02:58.568Z,24.00
2019-02-17T06:03:58.559Z,28.00
2019-02-17T06:04:58.569Z,32.00
2019-02-17T06:05:58.538Z,36.00
2019-02-17T06:06:58.523Z,40.00
2019-02-17T06:07:58.514Z,48.00
2019-02-17T06:08:58.506Z,52.00
2019-02-17T06:09:58.509Z,60.00
2019-02-17T06:10:58.478Z,68.00
2019-02-17T06:11:58.477Z,72.00
2019-02-17T06:12:58.457Z,80.00
2019-02-17T06:13:58.444Z,88.00
2019-02-17T06:14:58.465Z,96.00
2019-02-17T06:15:58.490Z,108.00
2019-02-17T06:16:58.418Z,116.00
2019-02-17T06:17:58.413Z,132.00
2019-02-17T06:18:58.392Z,144.00
2019-02-17T06:19:58.398Z,156.00
2019-02-17T06:20:58.371Z,168.00
2019-02-17T06:21:58.373Z,188.00
2019-02-17T06:22:58.354Z,200.00
2019-02-17T06:23:58.358Z,220.00
2019-02-17T06:24:58.350Z,240.00
2019-02-17T06:25:58.330Z,264.00
2019-02-17T06:26:58.315Z,284.00
2019-02-17T06:27:58.298Z,312.00
2019-02-17T06:28:58.284Z,336.00
2019-02-17T06:29:58.268Z,360.00
2019-02-17T06:30:58.318Z,392.00
2019-02-17T06:31:58.258Z,416.00
2019-02-17T06:32:58.247Z,452.00
2019-02-17T06:33:58.239Z,480.00
2019-02-17T06:34:58.226Z,512.00
2019-02-17T06:35:58.222Z,544.00
2019-02-17T06:36:58.200Z,576.00
2019-02-17T06:37:58.193Z,608.00
2019-02-17T06:38:58.170Z,644.00
2019-02-17T06:39:58.159Z,680.00
2019-02-17T06:40:58.175Z,712.00
2019-02-17T06:41:58.145Z,748.00
2019-02-17T06:42:58.124Z,784.00
2019-02-17T06:43:58.137Z,824.00
2019-02-17T06:44:58.102Z,856.00
2019-02-17T06:45:58.112Z,888.00
2019-02-17T06:46:58.080Z,920.00
2019-02-17T06:47:58.100Z,952.00
2019-02-17T06:48:58.059Z,988.00
2019-02-17T06:49:58.048Z,1020.00
2019-02-17T06:50:58.075Z,1056.00
2019-02-17T06:51:58.032Z,1100.00
2019-02-17T06:52:58.022Z,1132.00
2019-02-17T06:53:58.002Z,1172.00
2019-02-17T06:54:57.995Z,1212.00
2019-02-17T06:55:57.996Z,1252.00
2019-02-17T06:56:57.972Z,1288.00
2019-02-17T06:57:57.961Z,1324.00
2019-02-17T06:58:57.950Z,1364.00
2019-02-17T06:59:57.934Z,1404.00
2019-02-17T07:00:57.996Z,1444.00
2019-02-17T07:01:57.922Z,1480.00
2019-02-17T07:02:57.907Z,1516.00
2019-02-17T07:03:57.925Z,1548.00
2019-02-17T07:04:57.881Z,1584.00
2019-02-17T07:05:57.911Z,1624.00
2019-02-17T07:06:57.879Z,1664.00
2019-02-17T07:07:57.853Z,1704.00
2019-02-17T07:08:57.852Z,1744.00
2019-02-17T07:09:57.830Z,1780.00
2019-02-17T07:10:57.822Z,1804.00
2019-02-17T07:11:57.834Z,1828.00
2019-02-17T07:12:57.834Z,1856.00
2019-02-17T07:13:57.785Z,1888.00
2019-02-17T07:14:57.776Z,1920.00
2019-02-17T07:15:57.761Z,1960.00
2019-02-17T07:16:57.799Z,2008.00
2019-02-17T07:17:59.157Z,2052.00
2019-02-17T07:18:57.741Z,2096.00
2019-02-17T07:19:57.715Z,2136.00
2019-02-17T07:20:57.706Z,2180.00
2019-02-17T07:21:57.713Z,2228.00
2019-02-17T07:22:57.693Z,2272.00
2019-02-17T07:23:57.694Z,2308.00
2019-02-17T07:24:57.666Z,2340.00
2019-02-17T07:25:57.645Z,2392.00
2019-02-17T07:26:57.655Z,2456.00
2019-02-17T07:27:57.629Z,2508.00
2019-02-17T07:28:57.627Z,2536.00
2019-02-17T07:29:57.607Z,2560.00
2019-02-17T07:30:57.591Z,2604.00
2019-02-17T07:31:57.615Z,2640.00
2019-02-17T07:32:57.575Z,2668.00
2019-02-17T07:33:57.593Z,2708.00
2019-02-17T07:34:57.543Z,2748.00
2019-02-17T07:35:57.536Z,2768.00
2019-02-17T07:36:57.565Z,2788.00
2019-02-17T07:37:57.511Z,2804.00
2019-02-17T07:38:57.503Z,2824.00
2019-02-17T07:39:57.496Z,2840.00
2019-02-17T07:40:57.488Z,2864.00
2019-02-17T07:41:57.488Z,2884.00
2019-02-17T07:42:57.455Z,2900.00
2019-02-17T07:43:57.445Z,2944.00
2019-02-17T07:44:57.441Z,2996.00
2019-02-17T07:45:57.427Z,3032.00
2019-02-17T07:46:57.426Z,3064.00
2019-02-17T07:47:57.420Z,3092.00
2019-02-17T07:48:57.390Z,3080.00
2019-02-17T07:49:57.382Z,3128.00
2019-02-17T07:50:57.373Z,3232.00
2019-02-17T07:51:57.423Z,3292.00
2019-02-17T07:52:57.360Z,3328.00
2019-02-17T07:53:57.347Z,3372.00
2019-02-17T07:54:57.363Z,3404.00
2019-02-17T07:55:57.319Z,3428.00
2019-02-17T07:56:57.354Z,3420.00
2019-02-17T07:57:57.291Z,3396.00
2019-02-17T07:58:57.275Z,3376.00
2019-02-17T07:59:57.266Z,3372.00
2019-02-17T08:00:57.269Z,3388.00
2019-02-17T08:01:57.267Z,3428.00
2019-02-17T08:02:57.264Z,3480.00
2019-02-17T08:03:57.225Z,3508.00
2019-02-17T08:04:57.210Z,3564.00
2019-02-17T08:05:57.196Z,3636.00
2019-02-17T08:06:57.200Z,3676.00
2019-02-17T08:07:57.200Z,3708.00
2019-02-17T08:08:57.174Z,3736.00
2019-02-17T08:09:57.162Z,3772.00
2019-02-17T08:11:03.790Z,3868.00
2019-02-17T08:11:58.132Z,3964.00
2019-02-17T08:12:57.148Z,4024.00
2019-02-17T08:13:57.115Z,4072.00
2019-02-17T08:14:57.101Z,4132.00
2019-02-17T08:15:57.104Z,4188.00
2019-02-17T08:16:57.087Z,4244.00
2019-02-17T08:17:57.094Z,4284.00
2019-02-17T08:18:57.059Z,4316.00
2019-02-17T08:19:57.047Z,4332.00
2019-02-17T08:20:57.033Z,4360.00
2019-02-17T08:21:57.019Z,4392.00
2019-02-17T08:22:57.064Z,4436.00
2019-02-17T08:23:57.027Z,4464.00
2019-02-17T08:24:57.002Z,4528.00
2019-02-17T08:25:56.980Z,4576.00
2019-02-17T08:26:56.980Z,4612.00
2019-02-17T08:27:56.961Z,4668.00
2019-02-17T08:28:57.020Z,4716.00
2019-02-17T08:29:56.947Z,4772.00
2019-02-17T08:30:56.945Z,4796.00
2019-02-17T08:31:56.922Z,4800.00
2019-02-17T08:32:56.933Z,4832.00
2019-02-17T08:33:56.909Z,4848.00
2019-02-17T08:34:56.878Z,4904.00
2019-02-17T08:35:56.865Z,4948.00
2019-02-17T08:36:56.858Z,4996.00
2019-02-17T08:37:56.846Z,5064.00
2019-02-17T08:38:56.870Z,5140.00
2019-02-17T08:39:56.818Z,5204.00
2019-02-17T08:40:56.816Z,5284.00
2019-02-17T08:41:56.853Z,5384.00
2019-02-17T08:42:56.796Z,5484.00
2019-02-17T08:43:56.795Z,5560.00
2019-02-17T08:44:56.795Z,5628.00
2019-02-17T08:45:56.784Z,5684.00
2019-02-17T08:46:56.779Z,5736.00
2019-02-17T08:47:56.760Z,5776.00
2019-02-17T08:48:56.721Z,5804.00
2019-02-17T08:49:56.731Z,5820.00
2019-02-17T08:50:56.698Z,5864.00
2019-02-17T08:51:57.787Z,5932.00
2019-02-17T08:52:56.682Z,5984.00
2019-02-17T08:53:56.669Z,6024.00
2019-02-17T08:54:56.667Z,6048.00
2019-02-17T08:55:56.652Z,6068.00
2019-02-17T08:56:56.635Z,6108.00
2019-02-17T08:57:56.617Z,6152.00
2019-02-17T08:58:56.621Z,6200.00
2019-02-17T08:59:56.636Z,6244.00
2019-02-17T09:00:56.611Z,6336.00
2019-02-17T09:02:05.532Z,6396.00
2019-02-17T09:02:57.579Z,6452.00
2019-02-17T09:03:56.573Z,6492.00
2019-02-17T09:04:56.550Z,6516.00
2019-02-17T09:05:56.543Z,6544.00
2019-02-17T09:06:56.518Z,6588.00
2019-02-17T09:07:56.510Z,6640.00
2019-02-17T09:08:56.491Z,6676.00
2019-02-17T09:09:56.494Z,6696.00
2019-02-17T09:10:56.525Z,6720.00
2019-02-17T09:11:56.466Z,6788.00
2019-02-17T09:12:56.455Z,6864.00
2019-02-17T09:13:56.483Z,6920.00
2019-02-17T09:14:56.430Z,6948.00
2019-02-17T09:15:56.443Z,6980.00
2019-02-17T09:16:56.403Z,7008.00
2019-02-17T09:17:56.394Z,7048.00
2019-02-17T09:18:56.411Z,7100.00
2019-02-17T09:19:56.370Z,7120.00
2019-02-17T09:20:56.422Z,7156.00
2019-02-17T09:21:56.382Z,7160.00
2019-02-17T09:22:56.354Z,7168.00
2019-02-17T09:23:56.331Z,7208.00
2019-02-17T09:24:56.351Z,7264.00
2019-02-17T09:25:56.312Z,7292.00
2019-02-17T09:26:56.349Z,7276.00
2019-02-17T09:27:56.309Z,7276.00
2019-02-17T09:28:56.272Z,7332.00
2019-02-17T09:29:56.261Z,7408.00
2019-02-17T09:30:56.253Z,7416.00
2019-02-17T09:31:56.256Z,7476.00
2019-02-17T09:32:56.232Z,7584.00
2019-02-17T09:33:56.215Z,7632.00
2019-02-17T09:34:56.226Z,7740.00
2019-02-17T09:35:56.194Z,7816.00
2019-02-17T09:36:56.200Z,7964.00
2019-02-17T09:37:56.177Z,8048.00
2019-02-17T09:38:56.176Z,8136.00
2019-02-17T09:39:56.151Z,8196.00
2019-02-17T09:40:56.133Z,8188.00
2019-02-17T09:41:56.124Z,8208.00
2019-02-17T09:42:56.110Z,8232.00
2019-02-17T09:43:56.117Z,8260.00
2019-02-17T09:44:56.098Z,8240.00
2019-02-17T09:45:56.363Z,8204.00
2019-02-17T09:46:56.079Z,8180.00
2019-02-17T09:47:56.058Z,8232.00
2019-02-17T09:48:56.065Z,8372.00
2019-02-17T09:49:56.044Z,8564.00
2019-02-17T09:50:56.035Z,8864.00
2019-02-17T09:51:56.061Z,9120.00
2019-02-17T09:52:56.031Z,9468.00
2019-02-17T09:53:55.986Z,9708.00
2019-02-17T09:54:55.987Z,9952.00
2019-02-17T09:55:55.970Z,10096.00
2019-02-17T09:56:55.953Z,10200.00
2019-02-17T09:57:55.958Z,10344.00
2019-02-17T09:58:55.932Z,10536.00
2019-02-17T09:59:55.949Z,10872.00
2019-02-17T10:00:55.905Z,11008.00
2019-02-17T10:01:55.909Z,11128.00
2019-02-17T10:02:55.909Z,11220.00
2019-02-17T10:03:55.871Z,11364.00
2019-02-17T10:04:55.859Z,11656.00
2019-02-17T10:05:55.854Z,11740.00
2019-02-17T10:06:55.839Z,11756.00
2019-02-17T10:07:55.877Z,11976.00
2019-02-17T10:08:55.820Z,11824.00
2019-02-17T10:09:55.825Z,11888.00
2019-02-17T10:10:55.797Z,12088.00
2019-02-17T10:11:55.782Z,12596.00
2019-02-17T10:12:55.794Z,12992.00
2019-02-17T10:13:55.790Z,12952.00
2019-02-17T10:14:55.749Z,13196.00
2019-02-17T10:15:55.746Z,13456.00
2019-02-17T10:16:55.741Z,13608.00
2019-02-17T10:17:55.747Z,13996.00
2019-02-17T10:18:55.728Z,14300.00
2019-02-17T10:19:56.114Z,14520.00
2019-02-17T10:20:55.691Z,14480.00
2019-02-17T10:21:55.668Z,15408.00
2019-02-17T10:22:55.750Z,15716.00
2019-02-17T10:23:55.675Z,16480.00
2019-02-17T10:24:55.664Z,17056.00
2019-02-17T10:25:56.571Z,17728.00
2019-02-17T10:26:55.610Z,18496.00
2019-02-17T10:27:55.604Z,18880.00
2019-02-17T10:28:55.619Z,19104.00
2019-02-17T10:29:55.626Z,19072.00
2019-02-17T10:30:55.567Z,19008.00
2019-02-17T10:31:55.555Z,19296.00
2019-02-17T10:32:55.541Z,19776.00
2019-02-17T10:33:55.554Z,19968.00
2019-02-17T10:34:55.530Z,20416.00
2019-02-17T10:35:55.529Z,22048.00
2019-02-17T10:36:55.501Z,23744.00
2019-02-17T10:37:55.485Z,29120.00
2019-02-17T10:38:55.497Z,41152.00
2019-02-17T10:39:55.466Z,45888.00
2019-02-17T10:40:55.455Z,45600.00
2019-02-17T10:41:55.440Z,45056.00
2019-02-17T10:42:55.459Z,44320.00
2019-02-17T10:43:55.438Z,44512.00
2019-02-17T10:44:55.426Z,44096.00
2019-02-17T10:45:55.394Z,43264.00
2019-02-17T10:46:55.391Z,42784.00
2019-02-17T10:47:55.373Z,42944.00
2019-02-17T10:48:55.362Z,44480.00
2019-02-17T10:49:55.375Z,45728.00
2019-02-17T10:50:55.348Z,45440.00
2019-02-17T10:51:55.341Z,43072.00
2019-02-17T10:52:55.334Z,45824.00
2019-02-17T10:53:55.307Z,46688.00
2019-02-17T10:54:55.313Z,46464.00
2019-02-17T10:55:55.280Z,46208.00
2019-02-17T10:56:55.272Z,48832.00
2019-02-17T10:57:55.272Z,52992.00
2019-02-17T10:58:55.258Z,53056.00
2019-02-17T10:59:55.988Z,53088.00
2019-02-17T11:00:55.229Z,52352.00
2019-02-17T11:01:55.215Z,51552.00
2019-02-17T11:02:55.201Z,53920.00
2019-02-17T11:03:55.205Z,58432.00
2019-02-17T11:04:55.210Z,57312.00
2019-02-17T11:05:55.176Z,60512.00
2019-02-17T11:06:55.165Z,62720.00
2019-02-17T11:07:55.171Z,64640.00
2019-02-17T11:08:55.132Z,64000.00
2019-02-17T11:09:55.170Z,60000.00
2019-02-17T11:10:55.120Z,53536.00
2019-02-17T11:11:55.149Z,46176.00
2019-02-17T11:12:55.092Z,42048.00
2019-02-17T11:13:55.092Z,40480.00
2019-02-17T11:14:55.071Z,39040.00
2019-02-17T11:15:55.073Z,37824.00
2019-02-17T11:16:55.042Z,36896.00
2019-02-17T11:17:55.035Z,36416.00
2019-02-17T11:18:55.019Z,36224.00
2019-02-17T11:19:55.008Z,34976.00
2019-02-17T11:20:55.020Z,32416.00
2019-02-17T11:21:55.000Z,34208.00
2019-02-17T11:22:54.974Z,33376.00
2019-02-17T11:23:54.965Z,33376.00
2019-02-17T11:24:54.963Z,34144.00
2019-02-17T11:25:54.976Z,34336.00
2019-02-17T11:26:55.000Z,30016.00
2019-02-17T11:27:54.935Z,33056.00
2019-02-17T11:28:54.912Z,33504.00
2019-02-17T11:29:54.903Z,33792.00
2019-02-17T11:30:54.908Z,32800.00
2019-02-17T11:31:54.882Z,30592.00
2019-02-17T11:32:57.875Z,32000.00
2019-02-17T11:33:54.859Z,30144.00
2019-02-17T11:34:54.859Z,32768.00
2019-02-17T11:35:54.851Z,35424.00
2019-02-17T11:36:54.835Z,35136.00
2019-02-17T11:37:54.809Z,35168.00
2019-02-17T11:38:54.808Z,35328.00
2019-02-17T11:39:54.785Z,34432.00
2019-02-17T11:40:54.795Z,33152.00
2019-02-17T11:41:54.774Z,33888.00
2019-02-17T11:42:54.755Z,33120.00
2019-02-17T11:43:54.767Z,33216.00
2019-02-17T11:44:54.742Z,34368.00
2019-02-17T11:45:54.767Z,34944.00
2019-02-17T11:46:54.728Z,35040.00
2019-02-17T11:47:54.715Z,34752.00
2019-02-17T11:48:54.717Z,34624.00
2019-02-17T11:49:54.686Z,34112.00
2019-02-17T11:50:54.679Z,33440.00
2019-02-17T11:51:54.717Z,32384.00
2019-02-17T11:52:54.652Z,32544.00
2019-02-17T11:53:54.672Z,34016.00
2019-02-17T11:54:54.674Z,33472.00
2019-02-17T11:55:54.634Z,32384.00
2019-02-17T11:56:54.631Z,32288.00
2019-02-17T11:57:54.594Z,32928.00
2019-02-17T11:58:54.581Z,33632.00
2019-02-17T11:59:54.582Z,33760.00
2019-02-17T12:00:54.563Z,32896.00
2019-02-17T12:01:54.561Z,34240.00
2019-02-17T12:02:54.537Z,33632.00
2019-02-17T12:03:54.526Z,33152.00
2019-02-17T12:04:54.522Z,33920.00
2019-02-17T12:05:54.514Z,33056.00
2019-02-17T12:06:54.542Z,33344.00
2019-02-17T12:07:54.488Z,33312.00
2019-02-17T12:08:54.495Z,33856.00
2019-02-17T12:09:54.466Z,35360.00
2019-02-17T12:10:54.456Z,36096.00
2019-02-17T12:11:54.485Z,35744.00
2019-02-17T12:12:54.437Z,33184.00
2019-02-17T12:13:54.439Z,32384.00
2019-02-17T12:14:54.404Z,29632.00
2019-02-17T12:15:54.396Z,27936.00
2019-02-17T12:16:54.409Z,27392.00
2019-02-17T12:17:54.385Z,29248.00
2019-02-17T12:18:54.364Z,30336.00
2019-02-17T12:19:54.359Z,30240.00
2019-02-17T12:20:54.345Z,27968.00
2019-02-17T12:21:54.350Z,26464.00
2019-02-17T12:22:54.323Z,22912.00
2019-02-17T12:23:54.307Z,19616.00
2019-02-17T12:24:54.297Z,19200.00
2019-02-17T12:25:54.286Z,19840.00
2019-02-17T12:26:54.308Z,17600.00
2019-02-17T12:27:54.277Z,17184.00
2019-02-17T12:28:54.251Z,17440.00
2019-02-17T12:29:54.249Z,18080.00
2019-02-17T12:30:54.235Z,16032.00
2019-02-17T12:31:54.240Z,14976.00
2019-02-17T12:32:54.224Z,16576.00
2019-02-17T12:33:54.200Z,16896.00
2019-02-17T12:34:54.193Z,14772.00